Terminal Aerodrome Forecast
Issued by NWS Wilmington, NC

Home | Current Version | Previous Version | Text Only | Print | Product List | Glossary On
Versions: 1 2 3 4 5 6 7 8 9 10 11 12 13 14 15 16
000
FTUS42 KILM 022336
TAFMYR
TAF
KMYR 022336Z 0300/0324 15009KT P6SM BKN025
     FM030300 17007KT P6SM SCT120
      TEMPO 0306/0309 5SM -SHRA BKN050
     FM030900 19005KT 6SM -RA SCT050 BKN100
     FM031300 21005KT 6SM -RA SCT060 BKN100
     FM031500 21009KT P6SM BKN035 OVC080
      TEMPO 0315/0319 4SM TSRA BKN025CB
     FM031900 19011KT P6SM BKN080
      TEMPO 0319/0321 5SM -TSRA BKN035CB
     FM032100 19010KT P6SM BKN100
      TEMPO 0321/0324 P6SM -TSRA BKN050CB
      AMD LTD TO CLD VIS AND WIND TIL 031100=

USA.gov is the U.S. government's official web portal to all federal, state and local government web resources and services.